Shoshone, California Weather observations

Data are for observation ending at time listed.
 Day   Time    Ave.   Ave.  Ave.  Vector   Max.   Stn.    Total    Solar   Ave.  
  of    of     Air    Rel.  Wind   Wind    Wind   Baro.  Precip.   Rad.    Soil  
Year   Day     Temp.  Hum.  Speed  Dir.    Gust   Pres.                    Temp. 
2015   (PST)    F      %     mph   deg.    mph     mb.     in.     W/m2     F   
------------------------------------------------------------------------------
 185   17:00  108.0    11    2.6   109     12.4    959     0.00     436    99999.0
 185   18:00  104.2    12    2.3    24      4.5    959     0.00     111    99999.0
 185   19:00  102.0    14    1.6    29      3.3    959     0.00      43    99999.0
 185   20:00   96.4    16    0.7    33      3.4    959     0.00       1    99999.0
 185   21:00   94.2    16    1.1    64      4.7    960     0.00       0    99999.0
 185   22:00   98.8    15    3.9   179     12.6    960     0.00       0    99999.0
 185   23:00   96.5    18    7.6   301     20.5    962     0.00       0    99999.0
 186    0:00   94.1    21    9.9   343     22.6    961     0.00       0    99999.0
 186    1:00   91.7    23    8.1   332     18.0    962     0.00       0    99999.0
 186    2:00   89.2    24    2.7   314     13.2    962     0.00       0    99999.0
 186    3:00   85.2    29    0.7   212      3.4    962     0.00       0    99999.0
 186    4:00   81.4    31    0.6   313      3.0    963     0.00       0    99999.0
 186    5:00   79.1    33    0.4   327      3.3    963     0.00       5    99999.0
 186    6:00   82.3    31    1.2   322      4.5    964     0.00     102    99999.0
 186    7:00   89.4    25    2.1   300      5.1    964     0.00     317    99999.0
 186    8:00   93.1    22    2.1   286      5.3    964     0.00     509    99999.0
 186    9:00   96.6    19    1.9   293      5.7    964     0.00     695    99999.0
 186   10:00   99.4    17    2.8   223      7.7    964     0.00     847    99999.0
 186   11:00  103.0    15    2.9   157      9.3    964     0.00     963    99999.0
 186   12:00  104.2    14    4.0   178     13.2    963     0.00     996    99999.0
 186   13:00  106.2    13    5.5   191     14.3    962     0.00     991    99999.0
 186   14:00  106.9    12    5.8   183     16.4    961     0.00     914    99999.0
 186   15:00  108.2    12    4.9   175     17.0    960     0.00     829    99999.0
 186   16:00  107.9    11    4.8   176     14.2    960     0.00     516    99999.0

Return to Shoshone, California graphs page.


Western Regional Climate Center,wrcc@dri.edu